sensor_id;sensor_type;location;lat;lon;timestamp;temperature;humidity
64620;DHT22;51029;51.058;13.826;2023-04-01T00:00:59;10.70;99.90
64620;DHT22;51029;51.058;13.826;2023-04-01T00:03:25;10.60;99.90
64620;DHT22;51029;51.058;13.826;2023-04-01T00:05:56;10.60;99.90
64620;DHT22;51029;51.058;13.826;2023-04-01T00:08:22;10.50;99.90
64620;DHT22;51029;51.058;13.826;2023-04-01T00:10:48;10.50;99.90
64620;DHT22;51029;51.058;13.826;2023-04-01T00:13:13;10.50;99.90
64620;DHT22;51029;51.058;13.826;2023-04-01T00:15:39;10.40;99.90
64620;DHT22;51029;51.058;13.826;2023-04-01T00:18:04;10.40;99.90
64620;DHT22;51029;51.058;13.826;2023-04-01T00:20:30;10.40;99.90
64620;DHT22;51029;51.058;13.826;2023-04-01T00:22:56;10.30;99.90
64620;DHT22;51029;51.058;13.826;2023-04-01T00:25:22;10.30;99.90
64620;DHT22;51029;51.058;13.826;2023-04-01T00:27:48;10.30;99.90
64620;DHT22;51029;51.058;13.826;2023-04-01T00:30:15;10.30;99.90
64620;DHT22;51029;51.058;13.826;2023-04-01T00:32:40;10.30;99.90
64620;DHT22;51029;51.058;13.826;2023-04-01T00:35:07;10.30;99.90
64620;DHT22;51029;51.058;13.826;2023-04-01T00:37:35;10.30;99.90
64620;DHT22;51029;51.058;13.826;2023-04-01T00:40:03;10.30;99.90
64620;DHT22;51029;51.058;13.826;2023-04-01T00:42:29;10.30;99.90
64620;DHT22;51029;51.058;13.826;2023-04-01T00:44:55;10.30;99.90
64620;DHT22;51029;51.058;13.826;2023-04-01T00:47:22;10.30;99.90
64620;DHT22;51029;51.058;13.826;2023-04-01T00:49:51;10.30;99.90
64620;DHT22;51029;51.058;13.826;2023-04-01T00:52:21;10.30;99.90
64620;DHT22;51029;51.058;13.826;2023-04-01T00:54:51;10.30;99.90
64620;DHT22;51029;51.058;13.826;2023-04-01T00:57:23;10.40;99.90
64620;DHT22;51029;51.058;13.826;2023-04-01T00:59:52;10.30;99.90
64620;DHT22;51029;51.058;13.826;2023-04-01T01:02:19;10.30;99.90
64620;DHT22;51029;51.058;13.826;2023-04-01T01:04:45;10.30;99.90
64620;DHT22;51029;51.058;13.826;2023-04-01T01:07:42;10.20;99.90
64620;DHT22;51029;51.058;13.826;2023-04-01T01:10:18;10.20;99.90
64620;DHT22;51029;51.058;13.826;2023-04-01T01:13:04;10.20;99.90
64620;DHT22;51029;51.058;13.826;2023-04-01T01:18:35;10.20;99.90
64620;DHT22;51029;51.058;13.826;2023-04-01T21:03:40;10.40;99.90
64620;DHT22;51029;51.058;13.826;2023-04-01T21:08:47;10.40;99.90
64620;DHT22;51029;51.058;13.826;2023-04-01T21:17:17;10.60;99.90
64620;DHT22;51029;51.058;13.826;2023-04-01T21:20:16;10.60;99.90
64620;DHT22;51029;51.058;13.826;2023-04-01T21:22:59;10.60;99.90
64620;DHT22;51029;51.058;13.826;2023-04-01T21:28:18;10.50;99.90
64620;DHT22;51029;51.058;13.826;2023-04-01T21:31:04;10.50;99.90
64620;DHT22;51029;51.058;13.826;2023-04-01T21:39:42;10.70;99.90
64620;DHT22;51029;51.058;13.826;2023-04-01T21:50:55;10.70;99.90
64620;DHT22;51029;51.058;13.826;2023-04-01T22:08:00;10.50;99.90
64620;DHT22;51029;51.058;13.826;2023-04-01T22:10:37;10.50;99.90
64620;DHT22;51029;51.058;13.826;2023-04-01T22:13:31;10.50;99.90
64620;DHT22;51029;51.058;13.826;2023-04-01T22:22:01;10.20;99.90
64620;DHT22;51029;51.058;13.826;2023-04-01T22:24:34;10.10;99.90
64620;DHT22;51029;51.058;13.826;2023-04-01T22:32:18;10.00;99.90
64620;DHT22;51029;51.058;13.826;2023-04-01T22:37:33;10.00;99.90
64620;DHT22;51029;51.058;13.826;2023-04-01T22:40:25;10.00;99.90
64620;DHT22;51029;51.058;13.826;2023-04-01T22:43:05;9.90;99.90
64620;DHT22;51029;51.058;13.826;2023-04-01T22:45:45;9.80;99.90
64620;DHT22;51029;51.058;13.826;2023-04-01T22:48:16;9.70;99.90
64620;DHT22;51029;51.058;13.826;2023-04-01T22:51:13;9.70;99.90
64620;DHT22;51029;51.058;13.826;2023-04-01T22:56:32;9.50;99.90
64620;DHT22;51029;51.058;13.826;2023-04-01T22:59:13;9.50;99.90
64620;DHT22;51029;51.058;13.826;2023-04-01T23:01:57;9.50;99.90
64620;DHT22;51029;51.058;13.826;2023-04-01T23:04:29;9.40;99.90
64620;DHT22;51029;51.058;13.826;2023-04-01T23:06:59;9.40;99.90
64620;DHT22;51029;51.058;13.826;2023-04-01T23:09:28;9.40;99.90
64620;DHT22;51029;51.058;13.826;2023-04-01T23:22:35;9.30;99.90
64620;DHT22;51029;51.058;13.826;2023-04-01T23:35:47;9.30;99.90
64620;DHT22;51029;51.058;13.826;2023-04-01T23:38:13;9.20;99.90
64620;DHT22;51029;51.058;13.826;2023-04-01T23:40:40;9.20;99.90
64620;DHT22;51029;51.058;13.826;2023-04-01T23:43:23;9.20;99.90
64620;DHT22;51029;51.058;13.826;2023-04-01T23:45:50;9.20;99.90
64620;DHT22;51029;51.058;13.826;2023-04-01T23:48:16;9.20;99.90
64620;DHT22;51029;51.058;13.826;2023-04-01T23:50:45;9.20;99.90
64620;DHT22;51029;51.058;13.826;2023-04-01T23:53:18;9.20;99.90
64620;DHT22;51029;51.058;13.826;2023-04-01T23:55:44;9.20;99.90
64620;DHT22;51029;51.058;13.826;2023-04-01T23:58:24;9.20;99.90
